sensor_id;sensor_type;location;lat;lon;timestamp;P1;durP1;ratioP1;P2;durP2;ratioP2
75303;SDS011;64042;50.916;6.988;2023-02-28T00:02:15;1.53;;;1.43;;
75303;SDS011;64042;50.916;6.988;2023-02-28T00:04:42;1.17;;;1.08;;
75303;SDS011;64042;50.916;6.988;2023-02-28T00:07:08;2.65;;;1.58;;
75303;SDS011;64042;50.916;6.988;2023-02-28T00:09:33;1.40;;;1.27;;
75303;SDS011;64042;50.916;6.988;2023-02-28T00:11:58;2.57;;;1.27;;
75303;SDS011;64042;50.916;6.988;2023-02-28T00:14:24;1.65;;;1.55;;
75303;SDS011;64042;50.916;6.988;2023-02-28T00:16:49;1.33;;;1.23;;
75303;SDS011;64042;50.916;6.988;2023-02-28T00:19:14;1.73;;;1.63;;
75303;SDS011;64042;50.916;6.988;2023-02-28T00:21:39;1.70;;;1.60;;
75303;SDS011;64042;50.916;6.988;2023-02-28T00:24:05;1.95;;;1.55;;
75303;SDS011;64042;50.916;6.988;2023-02-28T00:26:31;1.23;;;1.13;;
75303;SDS011;64042;50.916;6.988;2023-02-28T00:28:56;1.47;;;1.37;;
75303;SDS011;64042;50.916;6.988;2023-02-28T00:31:22;1.43;;;1.10;;
75303;SDS011;64042;50.916;6.988;2023-02-28T00:33:47;1.85;;;1.75;;
75303;SDS011;64042;50.916;6.988;2023-02-28T00:36:12;1.00;;;1.00;;
75303;SDS011;64042;50.916;6.988;2023-02-28T00:38:38;1.47;;;1.20;;
75303;SDS011;64042;50.916;6.988;2023-02-28T00:41:04;1.27;;;1.08;;
75303;SDS011;64042;50.916;6.988;2023-02-28T00:43:29;1.10;;;1.00;;
75303;SDS011;64042;50.916;6.988;2023-02-28T00:45:55;1.70;;;1.60;;
75303;SDS011;64042;50.916;6.988;2023-02-28T00:48:20;1.57;;;1.47;;
75303;SDS011;64042;50.916;6.988;2023-02-28T00:50:48;1.40;;;1.30;;
75303;SDS011;64042;50.916;6.988;2023-02-28T00:53:14;1.30;;;1.20;;
75303;SDS011;64042;50.916;6.988;2023-02-28T00:55:39;1.20;;;1.10;;
75303;SDS011;64042;50.916;6.988;2023-02-28T00:58:04;1.30;;;1.20;;
75303;SDS011;64042;50.916;6.988;2023-02-28T01:00:30;1.88;;;1.77;;
75303;SDS011;64042;50.916;6.988;2023-02-28T01:02:56;1.45;;;1.08;;
75303;SDS011;64042;50.916;6.988;2023-02-28T01:05:21;1.50;;;1.17;;
75303;SDS011;64042;50.916;6.988;2023-02-28T01:07:46;1.95;;;1.85;;
75303;SDS011;64042;50.916;6.988;2023-02-28T01:10:12;1.63;;;1.43;;
75303;SDS011;64042;50.916;6.988;2023-02-28T01:12:37;1.45;;;1.35;;
75303;SDS011;64042;50.916;6.988;2023-02-28T01:15:03;1.60;;;1.50;;
75303;SDS011;64042;50.916;6.988;2023-02-28T01:17:29;1.40;;;1.30;;
75303;SDS011;64042;50.916;6.988;2023-02-28T01:19:54;1.58;;;1.48;;
75303;SDS011;64042;50.916;6.988;2023-02-28T01:22:20;1.58;;;1.40;;
75303;SDS011;64042;50.916;6.988;2023-02-28T01:24:46;1.42;;;1.33;;
75303;SDS011;64042;50.916;6.988;2023-02-28T01:27:11;1.10;;;0.90;;
75303;SDS011;64042;50.916;6.988;2023-02-28T01:29:36;1.00;;;1.00;;
75303;SDS011;64042;50.916;6.988;2023-02-28T01:32:02;1.40;;;0.90;;
75303;SDS011;64042;50.916;6.988;2023-02-28T01:34:27;1.27;;;1.17;;
75303;SDS011;64042;50.916;6.988;2023-02-28T01:36:52;2.87;;;2.77;;
75303;SDS011;64042;50.916;6.988;2023-02-28T01:39:18;1.43;;;1.27;;
75303;SDS011;64042;50.916;6.988;2023-02-28T01:41:43;1.23;;;1.13;;
75303;SDS011;64042;50.916;6.988;2023-02-28T01:47:11;1.25;;;1.00;;
75303;SDS011;64042;50.916;6.988;2023-02-28T01:49:37;1.10;;;1.00;;
75303;SDS011;64042;50.916;6.988;2023-02-28T01:52:02;1.35;;;1.25;;
75303;SDS011;64042;50.916;6.988;2023-02-28T01:54:29;1.10;;;1.00;;
75303;SDS011;64042;50.916;6.988;2023-02-28T01:56:57;1.67;;;1.52;;
75303;SDS011;64042;50.916;6.988;2023-02-28T01:59:26;1.40;;;1.23;;
75303;SDS011;64042;50.916;6.988;2023-02-28T02:02:17;1.17;;;1.15;;
75303;SDS011;64042;50.916;6.988;2023-02-28T02:04:50;1.45;;;1.20;;
75303;SDS011;64042;50.916;6.988;2023-02-28T02:07:18;2.38;;;1.45;;
75303;SDS011;64042;50.916;6.988;2023-02-28T02:09:44;1.23;;;1.10;;
75303;SDS011;64042;50.916;6.988;2023-02-28T02:12:23;1.73;;;1.08;;
75303;SDS011;64042;50.916;6.988;2023-02-28T02:15:05;1.33;;;1.23;;
75303;SDS011;64042;50.916;6.988;2023-02-28T02:17:38;1.33;;;1.23;;
75303;SDS011;64042;50.916;6.988;2023-02-28T02:25:45;1.33;;;1.17;;
75303;SDS011;64042;50.916;6.988;2023-02-28T02:28:29;1.58;;;1.15;;
75303;SDS011;64042;50.916;6.988;2023-02-28T02:31:13;1.25;;;1.13;;
75303;SDS011;64042;50.916;6.988;2023-02-28T02:34:07;0.85;;;0.85;;
75303;SDS011;64042;50.916;6.988;2023-02-28T02:36:58;1.42;;;1.33;;
75303;SDS011;64042;50.916;6.988;2023-02-28T02:39:44;1.40;;;1.30;;
75303;SDS011;64042;50.916;6.988;2023-02-28T02:42:20;1.35;;;1.25;;
75303;SDS011;64042;50.916;6.988;2023-02-28T02:44:50;1.27;;;1.13;;
75303;SDS011;64042;50.916;6.988;2023-02-28T02:47:21;1.10;;;1.00;;
75303;SDS011;64042;50.916;6.988;2023-02-28T02:49:51;2.03;;;1.92;;
75303;SDS011;64042;50.916;6.988;2023-02-28T02:52:18;2.65;;;1.77;;
75303;SDS011;64042;50.916;6.988;2023-02-28T02:54:47;1.20;;;1.10;;
75303;SDS011;64042;50.916;6.988;2023-02-28T02:57:15;1.10;;;1.00;;
75303;SDS011;64042;50.916;6.988;2023-02-28T02:59:53;0.95;;;0.95;;
75303;SDS011;64042;50.916;6.988;2023-02-28T03:02:18;1.65;;;1.33;;
75303;SDS011;64042;50.916;6.988;2023-02-28T03:04:48;1.23;;;1.15;;
75303;SDS011;64042;50.916;6.988;2023-02-28T03:07:16;2.50;;;2.40;;
75303;SDS011;64042;50.916;6.988;2023-02-28T03:09:49;1.08;;;0.98;;
75303;SDS011;64042;50.916;6.988;2023-02-28T03:12:16;1.13;;;1.02;;
75303;SDS011;64042;50.916;6.988;2023-02-28T03:20:01;1.33;;;1.15;;
75303;SDS011;64042;50.916;6.988;2023-02-28T03:28:03;1.25;;;0.90;;
75303;SDS011;64042;50.916;6.988;2023-02-28T03:30:50;1.35;;;1.25;;
75303;SDS011;64042;50.916;6.988;2023-02-28T03:33:20;0.90;;;0.90;;
75303;SDS011;64042;50.916;6.988;2023-02-28T03:35:49;2.33;;;2.22;;
75303;SDS011;64042;50.916;6.988;2023-02-28T03:40:51;1.35;;;1.15;;
75303;SDS011;64042;50.916;6.988;2023-02-28T03:43:25;2.38;;;2.28;;
75303;SDS011;64042;50.916;6.988;2023-02-28T03:45:53;1.13;;;1.10;;
75303;SDS011;64042;50.916;6.988;2023-02-28T03:48:24;1.52;;;1.10;;
75303;SDS011;64042;50.916;6.988;2023-02-28T03:50:53;1.13;;;1.08;;
75303;SDS011;64042;50.916;6.988;2023-02-28T03:55:53;1.08;;;1.08;;
75303;SDS011;64042;50.916;6.988;2023-02-28T03:58:27;1.20;;;1.08;;
75303;SDS011;64042;50.916;6.988;2023-02-28T04:01:01;1.00;;;0.90;;
75303;SDS011;64042;50.916;6.988;2023-02-28T04:03:32;0.90;;;0.90;;
75303;SDS011;64042;50.916;6.988;2023-02-28T04:05:58;1.10;;;1.10;;
75303;SDS011;64042;50.916;6.988;2023-02-28T04:08:24;1.95;;;1.05;;
75303;SDS011;64042;50.916;6.988;2023-02-28T04:10:51;1.40;;;1.30;;
75303;SDS011;64042;50.916;6.988;2023-02-28T04:13:20;1.02;;;0.90;;
75303;SDS011;64042;50.916;6.988;2023-02-28T04:15:45;1.63;;;1.53;;
75303;SDS011;64042;50.916;6.988;2023-02-28T04:18:10;1.00;;;0.97;;
75303;SDS011;64042;50.916;6.988;2023-02-28T04:20:36;1.10;;;1.00;;
75303;SDS011;64042;50.916;6.988;2023-02-28T04:23:01;1.20;;;1.10;;
75303;SDS011;64042;50.916;6.988;2023-02-28T04:25:26;1.55;;;1.45;;
75303;SDS011;64042;50.916;6.988;2023-02-28T04:27:52;1.23;;;1.13;;
75303;SDS011;64042;50.916;6.988;2023-02-28T04:30:17;0.90;;;0.90;;
75303;SDS011;64042;50.916;6.988;2023-02-28T04:32:42;0.82;;;0.82;;
75303;SDS011;64042;50.916;6.988;2023-02-28T04:35:08;1.23;;;0.90;;
75303;SDS011;64042;50.916;6.988;2023-02-28T04:37:33;1.48;;;1.38;;
75303;SDS011;64042;50.916;6.988;2023-02-28T04:39:59;2.67;;;2.58;;
75303;SDS011;64042;50.916;6.988;2023-02-28T04:42:25;0.82;;;0.82;;
75303;SDS011;64042;50.916;6.988;2023-02-28T04:44:51;1.02;;;0.73;;
75303;SDS011;64042;50.916;6.988;2023-02-28T04:47:16;1.23;;;0.90;;
75303;SDS011;64042;50.916;6.988;2023-02-28T04:49:42;1.17;;;1.15;;
75303;SDS011;64042;50.916;6.988;2023-02-28T04:52:07;1.27;;;1.25;;
75303;SDS011;64042;50.916;6.988;2023-02-28T04:54:34;1.13;;;1.05;;
75303;SDS011;64042;50.916;6.988;2023-02-28T04:57:00;0.60;;;0.60;;
75303;SDS011;64042;50.916;6.988;2023-02-28T04:59:26;1.50;;;1.25;;
75303;SDS011;64042;50.916;6.988;2023-02-28T05:01:51;1.23;;;1.23;;
75303;SDS011;64042;50.916;6.988;2023-02-28T05:04:17;1.30;;;1.20;;
75303;SDS011;64042;50.916;6.988;2023-02-28T05:06:42;1.30;;;1.20;;
75303;SDS011;64042;50.916;6.988;2023-02-28T05:09:07;1.27;;;1.27;;
75303;SDS011;64042;50.916;6.988;2023-02-28T05:11:33;1.47;;;1.37;;
75303;SDS011;64042;50.916;6.988;2023-02-28T05:13:59;1.13;;;1.13;;
75303;SDS011;64042;50.916;6.988;2023-02-28T05:16:28;2.05;;;1.95;;
75303;SDS011;64042;50.916;6.988;2023-02-28T05:18:54;1.63;;;1.52;;
75303;SDS011;64042;50.916;6.988;2023-02-28T05:21:38;1.67;;;1.10;;
75303;SDS011;64042;50.916;6.988;2023-02-28T05:24:06;1.10;;;0.90;;
75303;SDS011;64042;50.916;6.988;2023-02-28T05:26:35;1.35;;;1.25;;
75303;SDS011;64042;50.916;6.988;2023-02-28T05:29:01;1.55;;;1.45;;
75303;SDS011;64042;50.916;6.988;2023-02-28T05:31:26;0.90;;;0.90;;
75303;SDS011;64042;50.916;6.988;2023-02-28T05:33:51;2.27;;;2.03;;
75303;SDS011;64042;50.916;6.988;2023-02-28T05:36:17;1.10;;;1.00;;
75303;SDS011;64042;50.916;6.988;2023-02-28T05:38:42;0.85;;;0.82;;
75303;SDS011;64042;50.916;6.988;2023-02-28T05:41:08;1.30;;;1.20;;
75303;SDS011;64042;50.916;6.988;2023-02-28T05:43:34;0.98;;;0.98;;
75303;SDS011;64042;50.916;6.988;2023-02-28T05:46:02;1.58;;;1.45;;
75303;SDS011;64042;50.916;6.988;2023-02-28T05:48:28;1.13;;;1.02;;
75303;SDS011;64042;50.916;6.988;2023-02-28T05:50:53;1.43;;;1.33;;
75303;SDS011;64042;50.916;6.988;2023-02-28T05:53:18;0.90;;;0.90;;
75303;SDS011;64042;50.916;6.988;2023-02-28T05:55:44;1.35;;;1.25;;
75303;SDS011;64042;50.916;6.988;2023-02-28T05:58:09;1.10;;;1.10;;
75303;SDS011;64042;50.916;6.988;2023-02-28T06:00:34;1.30;;;1.20;;
75303;SDS011;64042;50.916;6.988;2023-02-28T06:02:59;1.43;;;1.20;;
75303;SDS011;64042;50.916;6.988;2023-02-28T06:05:26;1.67;;;1.00;;
75303;SDS011;64042;50.916;6.988;2023-02-28T06:07:52;1.20;;;1.13;;
75303;SDS011;64042;50.916;6.988;2023-02-28T06:10:18;1.47;;;1.37;;
75303;SDS011;64042;50.916;6.988;2023-02-28T06:12:44;1.55;;;1.50;;
75303;SDS011;64042;50.916;6.988;2023-02-28T06:15:11;1.52;;;1.42;;
75303;SDS011;64042;50.916;6.988;2023-02-28T06:17:37;2.00;;;1.40;;
75303;SDS011;64042;50.916;6.988;2023-02-28T06:20:03;1.00;;;1.00;;
75303;SDS011;64042;50.916;6.988;2023-02-28T06:22:29;1.30;;;1.20;;
75303;SDS011;64042;50.916;6.988;2023-02-28T06:24:55;1.40;;;1.30;;
75303;SDS011;64042;50.916;6.988;2023-02-28T06:27:21;1.08;;;1.00;;
75303;SDS011;64042;50.916;6.988;2023-02-28T06:29:47;1.75;;;1.25;;
75303;SDS011;64042;50.916;6.988;2023-02-28T06:32:12;1.27;;;1.27;;
75303;SDS011;64042;50.916;6.988;2023-02-28T06:34:37;1.20;;;1.20;;
75303;SDS011;64042;50.916;6.988;2023-02-28T06:37:03;1.17;;;1.07;;
75303;SDS011;64042;50.916;6.988;2023-02-28T06:39:29;1.25;;;1.15;;
75303;SDS011;64042;50.916;6.988;2023-02-28T06:41:54;2.72;;;2.63;;
75303;SDS011;64042;50.916;6.988;2023-02-28T06:44:20;1.10;;;1.10;;
75303;SDS011;64042;50.916;6.988;2023-02-28T06:46:46;2.22;;;1.35;;
75303;SDS011;64042;50.916;6.988;2023-02-28T06:49:11;3.22;;;3.13;;
75303;SDS011;64042;50.916;6.988;2023-02-28T06:51:37;1.58;;;1.48;;
75303;SDS011;64042;50.916;6.988;2023-02-28T06:54:04;1.17;;;1.13;;
75303;SDS011;64042;50.916;6.988;2023-02-28T06:56:29;1.52;;;1.42;;
75303;SDS011;64042;50.916;6.988;2023-02-28T06:58:55;1.48;;;1.27;;
75303;SDS011;64042;50.916;6.988;2023-02-28T07:01:21;1.30;;;1.20;;
75303;SDS011;64042;50.916;6.988;2023-02-28T07:03:48;1.67;;;1.25;;
75303;SDS011;64042;50.916;6.988;2023-02-28T07:06:17;0.95;;;0.95;;
75303;SDS011;64042;50.916;6.988;2023-02-28T07:08:43;1.33;;;1.33;;
75303;SDS011;64042;50.916;6.988;2023-02-28T07:11:09;1.45;;;1.05;;
75303;SDS011;64042;50.916;6.988;2023-02-28T07:13:35;1.08;;;1.00;;
75303;SDS011;64042;50.916;6.988;2023-02-28T07:16:04;1.17;;;1.08;;
75303;SDS011;64042;50.916;6.988;2023-02-28T07:18:30;1.02;;;1.02;;
75303;SDS011;64042;50.916;6.988;2023-02-28T07:20:56;0.90;;;0.90;;
75303;SDS011;64042;50.916;6.988;2023-02-28T07:23:21;0.77;;;0.77;;
75303;SDS011;64042;50.916;6.988;2023-02-28T07:25:47;1.13;;;1.02;;
75303;SDS011;64042;50.916;6.988;2023-02-28T07:28:13;0.82;;;0.82;;
75303;SDS011;64042;50.916;6.988;2023-02-28T07:30:40;1.13;;;1.02;;
75303;SDS011;64042;50.916;6.988;2023-02-28T07:33:05;0.88;;;0.88;;
75303;SDS011;64042;50.916;6.988;2023-02-28T07:35:30;1.00;;;0.90;;
75303;SDS011;64042;50.916;6.988;2023-02-28T07:37:59;2.25;;;2.15;;
75303;SDS011;64042;50.916;6.988;2023-02-28T07:40:25;1.15;;;1.05;;
75303;SDS011;64042;50.916;6.988;2023-02-28T07:42:50;1.42;;;0.98;;
75303;SDS011;64042;50.916;6.988;2023-02-28T07:45:16;0.73;;;0.73;;
75303;SDS011;64042;50.916;6.988;2023-02-28T07:47:42;1.02;;;0.88;;
75303;SDS011;64042;50.916;6.988;2023-02-28T07:50:09;1.05;;;1.05;;
75303;SDS011;64042;50.916;6.988;2023-02-28T07:52:36;0.90;;;0.90;;
75303;SDS011;64042;50.916;6.988;2023-02-28T07:55:01;1.67;;;0.90;;
75303;SDS011;64042;50.916;6.988;2023-02-28T07:57:26;1.38;;;1.27;;
75303;SDS011;64042;50.916;6.988;2023-02-28T07:59:52;1.43;;;1.20;;
75303;SDS011;64042;50.916;6.988;2023-02-28T08:02:17;2.47;;;2.38;;
75303;SDS011;64042;50.916;6.988;2023-02-28T08:04:43;1.38;;;1.20;;
75303;SDS011;64042;50.916;6.988;2023-02-28T08:07:09;1.05;;;1.05;;
75303;SDS011;64042;50.916;6.988;2023-02-28T08:09:38;2.90;;;2.80;;
75303;SDS011;64042;50.916;6.988;2023-02-28T08:12:04;1.38;;;1.25;;
75303;SDS011;64042;50.916;6.988;2023-02-28T08:14:29;2.08;;;1.15;;
75303;SDS011;64042;50.916;6.988;2023-02-28T08:16:54;1.58;;;1.48;;
75303;SDS011;64042;50.916;6.988;2023-02-28T08:19:20;1.27;;;1.20;;
75303;SDS011;64042;50.916;6.988;2023-02-28T08:21:45;0.90;;;0.90;;
75303;SDS011;64042;50.916;6.988;2023-02-28T08:24:10;1.20;;;1.10;;
75303;SDS011;64042;50.916;6.988;2023-02-28T08:26:35;1.17;;;1.15;;
75303;SDS011;64042;50.916;6.988;2023-02-28T08:29:01;2.50;;;2.33;;
75303;SDS011;64042;50.916;6.988;2023-02-28T08:31:26;1.43;;;1.23;;
75303;SDS011;64042;50.916;6.988;2023-02-28T08:33:51;1.33;;;1.20;;
75303;SDS011;64042;50.916;6.988;2023-02-28T08:36:18;1.02;;;0.95;;
75303;SDS011;64042;50.916;6.988;2023-02-28T08:38:44;1.75;;;1.65;;
75303;SDS011;64042;50.916;6.988;2023-02-28T08:41:10;1.42;;;1.33;;
75303;SDS011;64042;50.916;6.988;2023-02-28T08:43:37;1.38;;;1.27;;
75303;SDS011;64042;50.916;6.988;2023-02-28T08:46:03;1.02;;;1.00;;
75303;SDS011;64042;50.916;6.988;2023-02-28T08:48:29;0.90;;;0.90;;
75303;SDS011;64042;50.916;6.988;2023-02-28T08:51:00;1.50;;;1.10;;
75303;SDS011;64042;50.916;6.988;2023-02-28T08:53:29;1.65;;;1.45;;
75303;SDS011;64042;50.916;6.988;2023-02-28T08:55:56;1.25;;;1.23;;
75303;SDS011;64042;50.916;6.988;2023-02-28T08:58:22;1.83;;;1.73;;
75303;SDS011;64042;50.916;6.988;2023-02-28T09:00:47;1.38;;;1.33;;
75303;SDS011;64042;50.916;6.988;2023-02-28T09:03:13;2.93;;;2.73;;
75303;SDS011;64042;50.916;6.988;2023-02-28T09:05:38;1.37;;;1.00;;
75303;SDS011;64042;50.916;6.988;2023-02-28T09:08:03;1.23;;;1.23;;
75303;SDS011;64042;50.916;6.988;2023-02-28T09:10:29;0.98;;;0.82;;
75303;SDS011;64042;50.916;6.988;2023-02-28T09:12:54;1.55;;;1.45;;
75303;SDS011;64042;50.916;6.988;2023-02-28T09:15:19;1.63;;;1.53;;
75303;SDS011;64042;50.916;6.988;2023-02-28T09:17:45;1.23;;;1.23;;
75303;SDS011;64042;50.916;6.988;2023-02-28T09:20:10;1.20;;;1.10;;
75303;SDS011;64042;50.916;6.988;2023-02-28T09:22:36;1.30;;;1.20;;
75303;SDS011;64042;50.916;6.988;2023-02-28T09:25:01;1.30;;;1.20;;
75303;SDS011;64042;50.916;6.988;2023-02-28T09:27:26;1.52;;;1.42;;
75303;SDS011;64042;50.916;6.988;2023-02-28T09:29:52;0.90;;;0.90;;
75303;SDS011;64042;50.916;6.988;2023-02-28T09:32:17;1.17;;;1.17;;
75303;SDS011;64042;50.916;6.988;2023-02-28T09:34:42;1.00;;;1.00;;
75303;SDS011;64042;50.916;6.988;2023-02-28T09:37:08;1.30;;;1.20;;
75303;SDS011;64042;50.916;6.988;2023-02-28T09:39:33;0.80;;;0.80;;
75303;SDS011;64042;50.916;6.988;2023-02-28T09:41:58;1.30;;;1.30;;
75303;SDS011;64042;50.916;6.988;2023-02-28T09:44:31;1.38;;;1.27;;
75303;SDS011;64042;50.916;6.988;2023-02-28T09:47:01;1.40;;;1.30;;
75303;SDS011;64042;50.916;6.988;2023-02-28T09:49:42;1.00;;;1.00;;
75303;SDS011;64042;50.916;6.988;2023-02-28T09:52:15;1.85;;;1.75;;
75303;SDS011;64042;50.916;6.988;2023-02-28T09:54:42;1.13;;;1.10;;
75303;SDS011;64042;50.916;6.988;2023-02-28T09:57:19;2.47;;;1.23;;
75303;SDS011;64042;50.916;6.988;2023-02-28T10:05:49;2.10;;;1.42;;
75303;SDS011;64042;50.916;6.988;2023-02-28T10:08:28;1.48;;;1.15;;
75303;SDS011;64042;50.916;6.988;2023-02-28T10:10:57;1.33;;;0.80;;
75303;SDS011;64042;50.916;6.988;2023-02-28T10:13:25;2.53;;;0.70;;
75303;SDS011;64042;50.916;6.988;2023-02-28T10:16:05;1.33;;;1.25;;
75303;SDS011;64042;50.916;6.988;2023-02-28T10:18:39;1.30;;;1.20;;
75303;SDS011;64042;50.916;6.988;2023-02-28T10:21:10;0.98;;;0.90;;
75303;SDS011;64042;50.916;6.988;2023-02-28T10:23:43;1.42;;;1.33;;
75303;SDS011;64042;50.916;6.988;2023-02-28T10:26:13;3.55;;;3.35;;
75303;SDS011;64042;50.916;6.988;2023-02-28T10:28:41;1.73;;;1.40;;
75303;SDS011;64042;50.916;6.988;2023-02-28T10:31:08;3.35;;;3.15;;
75303;SDS011;64042;50.916;6.988;2023-02-28T10:33:37;1.00;;;1.00;;
75303;SDS011;64042;50.916;6.988;2023-02-28T10:36:03;1.35;;;1.25;;
75303;SDS011;64042;50.916;6.988;2023-02-28T10:38:35;3.53;;;1.42;;
75303;SDS011;64042;50.916;6.988;2023-02-28T10:41:12;2.08;;;1.10;;
75303;SDS011;64042;50.916;6.988;2023-02-28T10:43:40;2.58;;;1.02;;
75303;SDS011;64042;50.916;6.988;2023-02-28T10:51:04;1.98;;;0.90;;
75303;SDS011;64042;50.916;6.988;2023-02-28T10:53:32;1.50;;;1.13;;
75303;SDS011;64042;50.916;6.988;2023-02-28T11:01:24;1.40;;;1.30;;
75303;SDS011;64042;50.916;6.988;2023-02-28T11:04:11;0.77;;;0.77;;
75303;SDS011;64042;50.916;6.988;2023-02-28T11:06:44;2.42;;;2.33;;
75303;SDS011;64042;50.916;6.988;2023-02-28T11:12:04;1.13;;;1.02;;
75303;SDS011;64042;50.916;6.988;2023-02-28T11:14:32;1.33;;;1.23;;
75303;SDS011;64042;50.916;6.988;2023-02-28T11:17:00;0.95;;;0.95;;
75303;SDS011;64042;50.916;6.988;2023-02-28T11:19:44;0.73;;;0.73;;
75303;SDS011;64042;50.916;6.988;2023-02-28T11:22:11;0.80;;;0.80;;
75303;SDS011;64042;50.916;6.988;2023-02-28T11:24:43;0.80;;;0.80;;
75303;SDS011;64042;50.916;6.988;2023-02-28T11:27:24;1.13;;;1.05;;
75303;SDS011;64042;50.916;6.988;2023-02-28T11:29:55;1.45;;;1.45;;
75303;SDS011;64042;50.916;6.988;2023-02-28T11:32:22;1.08;;;1.05;;
75303;SDS011;64042;50.916;6.988;2023-02-28T11:37:26;1.15;;;1.15;;
75303;SDS011;64042;50.916;6.988;2023-02-28T11:39:52;1.20;;;1.10;;
75303;SDS011;64042;50.916;6.988;2023-02-28T11:42:28;1.10;;;1.10;;
75303;SDS011;64042;50.916;6.988;2023-02-28T11:48:10;0.95;;;0.82;;
75303;SDS011;64042;50.916;6.988;2023-02-28T11:50:49;0.88;;;0.88;;
75303;SDS011;64042;50.916;6.988;2023-02-28T11:56:11;1.50;;;1.40;;
75303;SDS011;64042;50.916;6.988;2023-02-28T11:58:44;2.40;;;2.30;;
75303;SDS011;64042;50.916;6.988;2023-02-28T12:01:36;1.20;;;1.05;;
75303;SDS011;64042;50.916;6.988;2023-02-28T12:10:20;1.98;;;1.88;;
75303;SDS011;64042;50.916;6.988;2023-02-28T12:13:08;0.60;;;0.60;;
75303;SDS011;64042;50.916;6.988;2023-02-28T12:24:00;0.90;;;0.90;;
75303;SDS011;64042;50.916;6.988;2023-02-28T12:26:39;2.25;;;2.15;;
75303;SDS011;64042;50.916;6.988;2023-02-28T12:29:16;0.82;;;0.73;;
75303;SDS011;64042;50.916;6.988;2023-02-28T12:31:46;4.15;;;3.95;;
75303;SDS011;64042;50.916;6.988;2023-02-28T12:34:19;1.00;;;1.00;;
75303;SDS011;64042;50.916;6.988;2023-02-28T12:36:46;1.23;;;1.20;;
75303;SDS011;64042;50.916;6.988;2023-02-28T12:39:14;1.30;;;1.20;;
75303;SDS011;64042;50.916;6.988;2023-02-28T12:41:44;0.68;;;0.68;;
75303;SDS011;64042;50.916;6.988;2023-02-28T12:44:23;0.93;;;0.93;;
75303;SDS011;64042;50.916;6.988;2023-02-28T12:47:12;2.03;;;1.83;;
75303;SDS011;64042;50.916;6.988;2023-02-28T12:49:48;2.35;;;0.93;;
75303;SDS011;64042;50.916;6.988;2023-02-28T12:52:17;1.13;;;0.90;;
75303;SDS011;64042;50.916;6.988;2023-02-28T12:54:50;1.10;;;1.00;;
75303;SDS011;64042;50.916;6.988;2023-02-28T12:57:28;1.25;;;1.10;;
75303;SDS011;64042;50.916;6.988;2023-02-28T13:00:02;1.23;;;0.82;;
75303;SDS011;64042;50.916;6.988;2023-02-28T13:02:48;2.35;;;1.13;;
75303;SDS011;64042;50.916;6.988;2023-02-28T13:05:26;1.15;;;1.05;;
75303;SDS011;64042;50.916;6.988;2023-02-28T13:11:05;2.35;;;0.60;;
75303;SDS011;64042;50.916;6.988;2023-02-28T13:13:31;0.80;;;0.80;;
75303;SDS011;64042;50.916;6.988;2023-02-28T13:18:38;0.80;;;0.70;;
75303;SDS011;64042;50.916;6.988;2023-02-28T13:21:05;1.40;;;1.02;;
75303;SDS011;64042;50.916;6.988;2023-02-28T13:23:36;1.80;;;1.27;;
75303;SDS011;64042;50.916;6.988;2023-02-28T13:26:04;1.30;;;0.90;;
75303;SDS011;64042;50.916;6.988;2023-02-28T13:28:56;1.65;;;1.00;;
75303;SDS011;64042;50.916;6.988;2023-02-28T13:31:22;1.20;;;0.88;;
75303;SDS011;64042;50.916;6.988;2023-02-28T13:38:58;1.35;;;1.05;;
75303;SDS011;64042;50.916;6.988;2023-02-28T13:46:29;1.90;;;1.27;;
75303;SDS011;64042;50.916;6.988;2023-02-28T13:48:55;1.52;;;1.42;;
75303;SDS011;64042;50.916;6.988;2023-02-28T13:51:27;1.10;;;1.10;;
75303;SDS011;64042;50.916;6.988;2023-02-28T14:05:19;2.88;;;1.58;;
75303;SDS011;64042;50.916;6.988;2023-02-28T14:07:50;1.42;;;1.13;;
75303;SDS011;64042;50.916;6.988;2023-02-28T14:12:55;1.85;;;1.10;;
75303;SDS011;64042;50.916;6.988;2023-02-28T14:18:02;5.10;;;1.52;;
75303;SDS011;64042;50.916;6.988;2023-02-28T14:20:47;1.45;;;1.35;;
75303;SDS011;64042;50.916;6.988;2023-02-28T14:26:10;3.33;;;1.42;;
75303;SDS011;64042;50.916;6.988;2023-02-28T14:28:47;4.88;;;1.58;;
75303;SDS011;64042;50.916;6.988;2023-02-28T14:31:37;1.90;;;1.67;;
75303;SDS011;64042;50.916;6.988;2023-02-28T14:34:29;1.70;;;1.48;;
75303;SDS011;64042;50.916;6.988;2023-02-28T14:37:15;1.45;;;1.35;;
75303;SDS011;64042;50.916;6.988;2023-02-28T14:39:43;3.33;;;3.22;;
75303;SDS011;64042;50.916;6.988;2023-02-28T14:42:31;2.78;;;2.25;;
75303;SDS011;64042;50.916;6.988;2023-02-28T14:44:58;5.63;;;5.20;;
75303;SDS011;64042;50.916;6.988;2023-02-28T14:47:26;3.20;;;2.45;;
75303;SDS011;64042;50.916;6.988;2023-02-28T14:49:53;3.70;;;2.35;;
75303;SDS011;64042;50.916;6.988;2023-02-28T14:52:20;5.65;;;5.10;;
75303;SDS011;64042;50.916;6.988;2023-02-28T14:54:57;4.97;;;3.00;;
75303;SDS011;64042;50.916;6.988;2023-02-28T14:57:29;5.35;;;3.20;;
75303;SDS011;64042;50.916;6.988;2023-02-28T15:02:53;5.20;;;3.75;;
75303;SDS011;64042;50.916;6.988;2023-02-28T15:05:22;5.55;;;4.50;;
75303;SDS011;64042;50.916;6.988;2023-02-28T15:08:05;5.00;;;3.42;;
75303;SDS011;64042;50.916;6.988;2023-02-28T15:10:31;3.10;;;2.58;;
75303;SDS011;64042;50.916;6.988;2023-02-28T15:12:57;3.72;;;2.83;;
75303;SDS011;64042;50.916;6.988;2023-02-28T15:15:25;3.70;;;2.85;;
75303;SDS011;64042;50.916;6.988;2023-02-28T15:17:57;4.97;;;3.65;;
75303;SDS011;64042;50.916;6.988;2023-02-28T15:20:24;3.17;;;2.80;;
75303;SDS011;64042;50.916;6.988;2023-02-28T15:22:50;4.20;;;2.70;;
75303;SDS011;64042;50.916;6.988;2023-02-28T15:25:18;3.58;;;2.78;;
75303;SDS011;64042;50.916;6.988;2023-02-28T15:27:45;4.13;;;3.30;;
75303;SDS011;64042;50.916;6.988;2023-02-28T15:30:18;3.33;;;2.33;;
75303;SDS011;64042;50.916;6.988;2023-02-28T15:32:45;3.25;;;2.95;;
75303;SDS011;64042;50.916;6.988;2023-02-28T15:35:32;3.78;;;2.85;;
75303;SDS011;64042;50.916;6.988;2023-02-28T15:38:00;4.50;;;2.55;;
75303;SDS011;64042;50.916;6.988;2023-02-28T15:40:31;3.20;;;2.28;;
75303;SDS011;64042;50.916;6.988;2023-02-28T15:42:59;3.15;;;2.85;;
75303;SDS011;64042;50.916;6.988;2023-02-28T15:45:40;3.42;;;2.78;;
75303;SDS011;64042;50.916;6.988;2023-02-28T15:48:15;2.65;;;2.28;;
75303;SDS011;64042;50.916;6.988;2023-02-28T15:50:42;3.47;;;3.17;;
75303;SDS011;64042;50.916;6.988;2023-02-28T15:53:18;3.17;;;2.30;;
75303;SDS011;64042;50.916;6.988;2023-02-28T15:55:50;2.92;;;2.20;;
75303;SDS011;64042;50.916;6.988;2023-02-28T15:58:17;3.33;;;2.25;;
75303;SDS011;64042;50.916;6.988;2023-02-28T16:00:44;4.05;;;2.15;;
75303;SDS011;64042;50.916;6.988;2023-02-28T16:03:23;3.13;;;1.95;;
75303;SDS011;64042;50.916;6.988;2023-02-28T16:08:59;3.42;;;2.42;;
75303;SDS011;64042;50.916;6.988;2023-02-28T16:11:24;3.60;;;2.35;;
75303;SDS011;64042;50.916;6.988;2023-02-28T16:13:50;2.60;;;2.40;;
75303;SDS011;64042;50.916;6.988;2023-02-28T16:16:20;3.13;;;2.33;;
75303;SDS011;64042;50.916;6.988;2023-02-28T16:18:46;2.65;;;2.17;;
75303;SDS011;64042;50.916;6.988;2023-02-28T16:21:12;2.38;;;1.92;;
75303;SDS011;64042;50.916;6.988;2023-02-28T16:23:37;4.07;;;2.00;;
75303;SDS011;64042;50.916;6.988;2023-02-28T16:26:03;3.00;;;2.30;;
75303;SDS011;64042;50.916;6.988;2023-02-28T16:28:30;2.53;;;2.13;;
75303;SDS011;64042;50.916;6.988;2023-02-28T16:31:01;1.90;;;1.63;;
75303;SDS011;64042;50.916;6.988;2023-02-28T16:33:28;2.40;;;1.77;;
75303;SDS011;64042;50.916;6.988;2023-02-28T16:35:53;3.92;;;2.08;;
75303;SDS011;64042;50.916;6.988;2023-02-28T16:38:19;4.45;;;2.05;;
75303;SDS011;64042;50.916;6.988;2023-02-28T16:40:44;2.88;;;1.75;;
75303;SDS011;64042;50.916;6.988;2023-02-28T16:43:13;3.40;;;1.45;;
75303;SDS011;64042;50.916;6.988;2023-02-28T16:45:41;2.45;;;2.22;;
75303;SDS011;64042;50.916;6.988;2023-02-28T16:48:07;1.80;;;1.70;;